Buoy 41560

sailwx.info

Track history (hours):
 
Tides and Currents Weather Stations Pressure Air Temp Water Temp Dewpoint Dewpoint Depression Visibility Wind Speed Wind Dir Waves Ship Positions

Drifting buoy 41560

Last reported at 2015-Jan-29 12:00 UTC. Time now 2015-Jan-29 14:29 UTC.
Position N 34°18' W 021°33'.

Barometer 1035.8 mb

Date/timePositionNaut miles runAvg speedWind from/ knotsBaromVisibWave heightAir tempDewpointWater temp
2015-Jan-29 12:00N 34°18' W 021°33'0 0.1 1035.8
2015-Jan-29 11:00N 34°18' W 021°33'1 0.7 1035.8
2015-Jan-29 10:00N 34°18' W 021°34'1 0.4 1035.5
2015-Jan-29 08:00N 34°18' W 021°35'1 0.4 1034.5
2015-Jan-29 05:00N 34°17' W 021°36'0 0.0 1034.5
2015-Jan-29 04:00N 34°17' W 021°36'1 0.5 1034.8
2015-Jan-29 03:00N 34°17' W 021°36'1 0.2 1035.0
2015-Jan-28 23:00N 34°17' W 021°35'2 1.9 1035.7
2015-Jan-28 22:00N 34°16' W 021°37'1 0.7 1035.8
2015-Jan-28 21:00N 34°17' W 021°37'1 1.0 1035.5
2015-Jan-28 20:00N 34°16' W 021°37'1 0.6 1035.2
2015-Jan-28 19:00N 34°16' W 021°37'1 0.6 1034.9
2015-Jan-28 18:00N 34°16' W 021°38'1 0.5 1034.9
2015-Jan-28 16:00N 34°15' W 021°37'0 0.0 1034.8
2015-Jan-28 15:00N 34°15' W 021°37'1 0.6 1035.1
2015-Jan-28 14:00N 34°15' W 021°37'0 0.2 1035.9
2015-Jan-28 12:00N 34°15' W 021°37'0 0.3 1036.9
2015-Jan-28 11:00N 34°16' W 021°37'1 0.5 1036.6
2015-Jan-28 09:00N 34°15' W 021°38'0 0.1 1035.6
2015-Jan-28 07:00N 34°16' W 021°38'0 0.2 1034.9
2015-Jan-28 05:00N 34°15' W 021°38'1 0.2 1035.2
2015-Jan-28 02:00N 34°15' W 021°38'1 0.6 1036.6
2015-Jan-28 01:00N 34°15' W 021°39'1 0.3 1037.2
2015-Jan-27 23:00N 34°15' W 021°38'0 0.3 1037.3
2015-Jan-27 22:00N 34°14' W 021°38'0 0.3 1037.1
2015-Jan-27 21:00N 34°14' W 021°38'0 0.3 1036.8
2015-Jan-27 20:00N 34°14' W 021°38'0 0.2 1036.2
2015-Jan-27 19:00N 34°14' W 021°38'1 0.7 1036.1
2015-Jan-27 18:00N 34°14' W 021°39'0 0.1 1036.0
2015-Jan-27 17:00N 34°14' W 021°39'0 0.1 1036.1
2015-Jan-27 16:00N 34°14' W 021°39'0 0.0 1036.5
2015-Jan-27 15:00N 34°14' W 021°39'2 0.6 1036.8
2015-Jan-27 12:00N 34°16' W 021°40'1 0.4 1038.9
2015-Jan-27 10:00N 34°15' W 021°39'1 0.9 1038.4
2015-Jan-27 09:00N 34°16' W 021°40'0 0.2 1037.9
2015-Jan-27 07:00N 34°16' W 021°40'1 0.5 1036.8
2015-Jan-27 05:00N 34°16' W 021°41'1 0.2 1036.3
2015-Jan-26 23:00N 34°16' W 021°40'0 0.4 1037.1
2015-Jan-26 22:00N 34°16' W 021°39'1 1.2 1037.1
2015-Jan-26 21:00N 34°16' W 021°38'1 0.5 1036.5
2015-Jan-26 19:00N 34°17' W 021°37'0 0.4 1035.5
2015-Jan-26 18:00N 34°17' W 021°36'0 0.2 1035.0
2015-Jan-26 17:00N 34°17' W 021°37'0 0.2 1034.5
2015-Jan-26 15:00N 34°17' W 021°36'0 0.1 1034.3
2015-Jan-26 14:00N 34°17' W 021°36'0 0.3 1035.0
2015-Jan-26 13:00N 34°17' W 021°36'0 0.3 1035.7
2015-Jan-26 12:00N 34°17' W 021°36'0 0.4 1035.9
2015-Jan-26 11:00N 34°17' W 021°35'1 1.0 1035.5
2015-Jan-26 10:00N 34°18' W 021°35'0 0.2 1035.0
2015-Jan-26 09:00N 34°18' W 021°35'1 0.7 1034.6
2015-Jan-26 07:00N 34°17' W 021°33'0 0.3 1033.3
2015-Jan-26 06:00N 34°17' W 021°33'0 0.5 1033.1
2015-Jan-26 05:00N 34°18' W 021°33'0 0.2 1032.9
2015-Jan-26 04:00N 34°18' W 021°33'0 0.0 1033.0
2015-Jan-26 03:00N 34°18' W 021°33'0 0.2 1032.7
2015-Jan-26 02:00N 34°18' W 021°32'1 0.3 1032.7
2015-Jan-25 22:00N 34°17' W 021°31'0 0.2 1032.2
2015-Jan-25 20:00N 34°17' W 021°30'1 0.5 1031.5
2015-Jan-25 19:00N 34°18' W 021°31'1 1.4 1031.2
2015-Jan-25 18:00N 34°16' W 021°30'0 0.0 1031.0
2015-Jan-25 17:00N 34°16' W 021°30'1 0.5 1030.6
2015-Jan-25 15:00N 34°16' W 021°30'1 0.8 1030.7
2015-Jan-25 14:00N 34°15' W 021°30'1 0.4 1031.6
2015-Jan-25 12:00N 34°14' W 021°30'0 0.4 1032.2
2015-Jan-25 11:00N 34°14' W 021°29'0 0.4 1032.0
2015-Jan-25 10:00N 34°14' W 021°29'2 0.4 1031.4
2015-Jan-25 06:00N 34°14' W 021°28'0 0.4 1029.9
2015-Jan-25 05:00N 34°13' W 021°28'0 0.2 1030.2
2015-Jan-25 04:00N 34°13' W 021°28'0 0.4 1030.2
2015-Jan-25 03:00N 34°13' W 021°28'1 0.7 1030.5
2015-Jan-25 02:00N 34°13' W 021°29'2 0.6 1030.8
2015-Jan-24 23:00N 34°13' W 021°27'0 0.4 1031.6
2015-Jan-24 22:00N 34°13' W 021°27'1 0.8 1031.5
2015-Jan-24 21:00N 34°13' W 021°26'0 0.4 1031.3
2015-Jan-24 20:00N 34°13' W 021°26'0 0.2 1031.0
2015-Jan-24 18:00N 34°13' W 021°26'1 0.5 1030.3
2015-Jan-24 17:00N 34°13' W 021°25'1 0.3 1030.4
2015-Jan-24 14:00N 34°12' W 021°25'2 0.8 1031.3
2015-Jan-24 12:00N 34°11' W 021°23'0 0.4 1033.0
2015-Jan-24 11:00N 34°12' W 021°23'1 0.7 1032.9
2015-Jan-24 10:00N 34°11' W 021°22'0 0.0 1032.5
2015-Jan-24 09:00N 34°11' W 021°22'1 0.8 1031.9
2015-Jan-24 08:00N 34°12' W 021°23'0 0.2 1031.3
2015-Jan-24 07:00N 34°12' W 021°22'0 0.2 1030.9
2015-Jan-24 06:00N 34°12' W 021°22'0 0.4 1030.5
2015-Jan-24 05:00N 34°12' W 021°23'0 0.1 1030.7
2015-Jan-24 04:00N 34°12' W 021°23'1 0.7 1031.0
2015-Jan-24 03:00N 34°11' W 021°23'0 0.1 1031.3
2015-Jan-24 02:00N 34°11' W 021°23'0 0.1 1032.0
2015-Jan-23 23:00N 34°11' W 021°24'0 0.3 1033.1
2015-Jan-23 22:00N 34°12' W 021°24'1 0.7 1032.8
2015-Jan-23 21:00N 34°12' W 021°24'1 0.5 1032.7
2015-Jan-23 20:00N 34°12' W 021°24'0 0.0 1032.3
2015-Jan-23 19:00N 34°12' W 021°24'1 0.7 1032.0
2015-Jan-23 17:00N 34°13' W 021°26'0 0.5 1031.8
2015-Jan-23 16:00N 34°13' W 021°26'1 0.6 1032.0
2015-Jan-23 14:00N 34°13' W 021°27'1 0.9 1032.6
2015-Jan-23 13:00N 34°13' W 021°28'1 1.2 1033.4
2015-Jan-23 12:00N 34°13' W 021°27'0 0.0 1033.9
2015-Jan-23 11:00N 34°13' W 021°27'1 0.6 1034.0
2015-Jan-23 10:00N 34°13' W 021°28'1 0.3 1033.7
2015-Jan-23 08:00N 34°13' W 021°27'0 0.2 1032.9
2015-Jan-23 06:00N 34°13' W 021°26'0 0.2 1032.3
2015-Jan-23 05:00N 34°13' W 021°27'0 0.3 1032.5
2015-Jan-23 04:00N 34°12' W 021°27'0 0.1 1032.8
2015-Jan-23 03:00N 34°12' W 021°27'2 0.3 1033.1
2015-Jan-22 22:00N 34°11' W 021°26'0 0.0 1034.2
2015-Jan-22 21:00N 34°11' W 021°26'2 0.9 1034.2
2015-Jan-22 19:00N 34°10' W 021°24'0 0.0 1033.4
2015-Jan-22 18:00N 34°10' W 021°24'0 0.2 1033.2
2015-Jan-22 17:00N 34°10' W 021°24'1 0.6 1033.1
2015-Jan-22 16:00N 34°10' W 021°24'2 0.8 1033.1
2015-Jan-22 14:00N 34°09' W 021°26'1 0.5 1033.7
2015-Jan-22 12:00N 34°08' W 021°25'1 1.0 1035.4
2015-Jan-22 11:00N 34°08' W 021°24'1 0.3 1035.1
2015-Jan-22 08:00N 34°07' W 021°24'0 0.0 1034.3
2015-Jan-22 07:00N 34°07' W 021°24'0 0.4 1033.7
2015-Jan-22 06:00N 34°07' W 021°24'0 0.2 1033.5
2015-Jan-22 05:00N 34°07' W 021°24'1 0.3 1033.5
2015-Jan-22 03:00N 34°06' W 021°24'2 1.9 1033.3
2015-Jan-22 02:00N 34°05' W 021°25'0 0.1 1033.4
2015-Jan-21 23:00N 34°04' W 021°25'1 0.5 1033.7
2015-Jan-21 22:00N 34°04' W 021°25'1 0.9 1033.6
2015-Jan-21 21:00N 34°04' W 021°24'1 0.4 1033.2
2015-Jan-21 19:00N 34°04' W 021°25'0 0.3 1032.3
2015-Jan-21 18:00N 34°04' W 021°25'1 0.7 1031.8
2015-Jan-21 16:00N 34°03' W 021°26'0 0.0 1031.1
2015-Jan-21 15:00N 34°03' W 021°26'1 0.3 1031.0
2015-Jan-21 12:00N 34°03' W 021°25'0 0.2 1032.8
2015-Jan-21 11:00N 34°02' W 021°25'1 0.8 1032.3
2015-Jan-21 10:00N 34°03' W 021°25'1 0.5 1031.7
2015-Jan-21 07:00N 34°03' W 021°24'0 0.2 1030.1
2015-Jan-21 06:00N 34°03' W 021°23'1 0.7 1029.4
2015-Jan-21 05:00N 34°03' W 021°24'0 0.2 1029.2
2015-Jan-21 03:00N 34°03' W 021°25'2 0.4 1029.2
2015-Jan-20 23:00N 34°01' W 021°24'0 0.4 1029.9
2015-Jan-20 22:00N 34°01' W 021°24'1 1.1 1029.7
2015-Jan-20 21:00N 34°01' W 021°23'0 0.0 1029.5
2015-Jan-20 20:00N 34°01' W 021°23'0 0.1 1029.3
2015-Jan-20 18:00N 34°01' W 021°23'0 0.1 1028.6
2015-Jan-20 17:00N 34°01' W 021°23'1 0.4 1028.4
2015-Jan-20 15:00N 34°00' W 021°23'0 0.1 1028.3
2015-Jan-20 13:00N 34°00' W 021°22'0 0.3 1029.3
2015-Jan-20 12:00N 34°00' W 021°22'1 1.1 1029.7
2015-Jan-20 11:00N 34°00' W 021°21'1 0.6 1029.8
2015-Jan-20 10:00N 34°01' W 021°21'0 0.0 1029.1
2015-Jan-20 08:00N 34°01' W 021°21'1 0.9 1028.2
2015-Jan-20 07:00N 34°01' W 021°20'1 0.5 1027.8
2015-Jan-20 06:00N 34°01' W 021°19'0 0.5 1028.2
2015-Jan-20 05:00N 34°02' W 021°20'1 0.6 1028.3
2015-Jan-20 03:00N 34°03' W 021°21'2 0.4 1029.1
2015-Jan-19 23:00N 34°04' W 021°19'0 0.5 1030.8
2015-Jan-19 22:00N 34°04' W 021°20'0 0.2 1030.8
2015-Jan-19 21:00N 34°04' W 021°20'1 1.2 1030.9
2015-Jan-19 20:00N 34°05' W 021°19'1 0.5 1030.9
2015-Jan-19 19:00N 34°06' W 021°19'0 0.0 1030.8
2015-Jan-19 18:00N 34°06' W 021°19'1 0.6 1031.0
2015-Jan-19 17:00N 34°06' W 021°19'1 0.3 1030.9
2015-Jan-19 15:00N 34°07' W 021°19'1 0.6 1030.9
2015-Jan-19 13:00N 34°08' W 021°20'1 0.6 1031.9
2015-Jan-19 12:00N 34°07' W 021°20'   1032.4
Track history (hours):
 
Tides and Currents Weather Stations Pressure Air Temp Water Temp Dewpoint Dewpoint Depression Visibility Wind Speed Wind Dir Waves Ship Positions

Drifting buoy 41560

Last reported at 2015-Jan-29 12:00 UTC. Time now 2015-Jan-29 14:29 UTC.
Position N 34°18' W 021°33'.

Barometer 1035.8 mb

Date/timePositionNaut miles runAvg speedWind from/ knotsBaromVisibWave heightAir tempDewpointWater temp
2015-Jan-29 12:00N 34°18' W 021°33'0 0.1 1035.8
2015-Jan-29 11:00N 34°18' W 021°33'1 0.7 1035.8
2015-Jan-29 10:00N 34°18' W 021°34'1 0.4 1035.5
2015-Jan-29 08:00N 34°18' W 021°35'1 0.4 1034.5
2015-Jan-29 05:00N 34°17' W 021°36'0 0.0 1034.5
2015-Jan-29 04:00N 34°17' W 021°36'1 0.5 1034.8
2015-Jan-29 03:00N 34°17' W 021°36'1 0.2 1035.0
2015-Jan-28 23:00N 34°17' W 021°35'2 1.9 1035.7
2015-Jan-28 22:00N 34°16' W 021°37'1 0.7 1035.8
2015-Jan-28 21:00N 34°17' W 021°37'1 1.0 1035.5
2015-Jan-28 20:00N 34°16' W 021°37'1 0.6 1035.2
2015-Jan-28 19:00N 34°16' W 021°37'1 0.6 1034.9
2015-Jan-28 18:00N 34°16' W 021°38'1 0.5 1034.9
2015-Jan-28 16:00N 34°15' W 021°37'0 0.0 1034.8
2015-Jan-28 15:00N 34°15' W 021°37'1 0.6 1035.1
2015-Jan-28 14:00N 34°15' W 021°37'0 0.2 1035.9
2015-Jan-28 12:00N 34°15' W 021°37'0 0.3 1036.9
2015-Jan-28 11:00N 34°16' W 021°37'1 0.5 1036.6
2015-Jan-28 09:00N 34°15' W 021°38'0 0.1 1035.6
2015-Jan-28 07:00N 34°16' W 021°38'0 0.2 1034.9
2015-Jan-28 05:00N 34°15' W 021°38'1 0.2 1035.2
2015-Jan-28 02:00N 34°15' W 021°38'1 0.6 1036.6
2015-Jan-28 01:00N 34°15' W 021°39'1 0.3 1037.2
2015-Jan-27 23:00N 34°15' W 021°38'0 0.3 1037.3
2015-Jan-27 22:00N 34°14' W 021°38'0 0.3 1037.1
2015-Jan-27 21:00N 34°14' W 021°38'0 0.3 1036.8
2015-Jan-27 20:00N 34°14' W 021°38'0 0.2 1036.2
2015-Jan-27 19:00N 34°14' W 021°38'1 0.7 1036.1
2015-Jan-27 18:00N 34°14' W 021°39'0 0.1 1036.0
2015-Jan-27 17:00N 34°14' W 021°39'0 0.1 1036.1
2015-Jan-27 16:00N 34°14' W 021°39'0 0.0 1036.5
2015-Jan-27 15:00N 34°14' W 021°39'2 0.6 1036.8
2015-Jan-27 12:00N 34°16' W 021°40'1 0.4 1038.9
2015-Jan-27 10:00N 34°15' W 021°39'1 0.9 1038.4
2015-Jan-27 09:00N 34°16' W 021°40'0 0.2 1037.9
2015-Jan-27 07:00N 34°16' W 021°40'1 0.5 1036.8
2015-Jan-27 05:00N 34°16' W 021°41'1 0.2 1036.3
2015-Jan-26 23:00N 34°16' W 021°40'0 0.4 1037.1
2015-Jan-26 22:00N 34°16' W 021°39'1 1.2 1037.1
2015-Jan-26 21:00N 34°16' W 021°38'1 0.5 1036.5
2015-Jan-26 19:00N 34°17' W 021°37'0 0.4 1035.5
2015-Jan-26 18:00N 34°17' W 021°36'0 0.2 1035.0
2015-Jan-26 17:00N 34°17' W 021°37'0 0.2 1034.5
2015-Jan-26 15:00N 34°17' W 021°36'0 0.1 1034.3
2015-Jan-26 14:00N 34°17' W 021°36'0 0.3 1035.0
2015-Jan-26 13:00N 34°17' W 021°36'0 0.3 1035.7
2015-Jan-26 12:00N 34°17' W 021°36'0 0.4 1035.9
2015-Jan-26 11:00N 34°17' W 021°35'1 1.0 1035.5
2015-Jan-26 10:00N 34°18' W 021°35'0 0.2 1035.0
2015-Jan-26 09:00N 34°18' W 021°35'1 0.7 1034.6
2015-Jan-26 07:00N 34°17' W 021°33'0 0.3 1033.3
2015-Jan-26 06:00N 34°17' W 021°33'0 0.5 1033.1
2015-Jan-26 05:00N 34°18' W 021°33'0 0.2 1032.9
2015-Jan-26 04:00N 34°18' W 021°33'0 0.0 1033.0
2015-Jan-26 03:00N 34°18' W 021°33'0 0.2 1032.7
2015-Jan-26 02:00N 34°18' W 021°32'1 0.3 1032.7
2015-Jan-25 22:00N 34°17' W 021°31'0 0.2 1032.2
2015-Jan-25 20:00N 34°17' W 021°30'1 0.5 1031.5
2015-Jan-25 19:00N 34°18' W 021°31'1 1.4 1031.2
2015-Jan-25 18:00N 34°16' W 021°30'0 0.0 1031.0
2015-Jan-25 17:00N 34°16' W 021°30'1 0.5 1030.6
2015-Jan-25 15:00N 34°16' W 021°30'1 0.8 1030.7
2015-Jan-25 14:00N 34°15' W 021°30'1 0.4 1031.6
2015-Jan-25 12:00N 34°14' W 021°30'0 0.4 1032.2
2015-Jan-25 11:00N 34°14' W 021°29'0 0.4 1032.0
2015-Jan-25 10:00N 34°14' W 021°29'2 0.4 1031.4
2015-Jan-25 06:00N 34°14' W 021°28'0 0.4 1029.9
2015-Jan-25 05:00N 34°13' W 021°28'0 0.2 1030.2
2015-Jan-25 04:00N 34°13' W 021°28'0 0.4 1030.2
2015-Jan-25 03:00N 34°13' W 021°28'1 0.7 1030.5
2015-Jan-25 02:00N 34°13' W 021°29'2 0.6 1030.8
2015-Jan-24 23:00N 34°13' W 021°27'0 0.4 1031.6
2015-Jan-24 22:00N 34°13' W 021°27'1 0.8 1031.5
2015-Jan-24 21:00N 34°13' W 021°26'0 0.4 1031.3
2015-Jan-24 20:00N 34°13' W 021°26'0 0.2 1031.0
2015-Jan-24 18:00N 34°13' W 021°26'1 0.5 1030.3
2015-Jan-24 17:00N 34°13' W 021°25'1 0.3 1030.4
2015-Jan-24 14:00N 34°12' W 021°25'2 0.8 1031.3
2015-Jan-24 12:00N 34°11' W 021°23'0 0.4 1033.0
2015-Jan-24 11:00N 34°12' W 021°23'1 0.7 1032.9
2015-Jan-24 10:00N 34°11' W 021°22'0 0.0 1032.5
2015-Jan-24 09:00N 34°11' W 021°22'1 0.8 1031.9
2015-Jan-24 08:00N 34°12' W 021°23'0 0.2 1031.3
2015-Jan-24 07:00N 34°12' W 021°22'0 0.2 1030.9
2015-Jan-24 06:00N 34°12' W 021°22'0 0.4 1030.5
2015-Jan-24 05:00N 34°12' W 021°23'0 0.1 1030.7
2015-Jan-24 04:00N 34°12' W 021°23'1 0.7 1031.0
2015-Jan-24 03:00N 34°11' W 021°23'0 0.1 1031.3
2015-Jan-24 02:00N 34°11' W 021°23'0 0.1 1032.0
2015-Jan-23 23:00N 34°11' W 021°24'0 0.3 1033.1
2015-Jan-23 22:00N 34°12' W 021°24'1 0.7 1032.8
2015-Jan-23 21:00N 34°12' W 021°24'1 0.5 1032.7
2015-Jan-23 20:00N 34°12' W 021°24'0 0.0 1032.3
2015-Jan-23 19:00N 34°12' W 021°24'1 0.7 1032.0
2015-Jan-23 17:00N 34°13' W 021°26'0 0.5 1031.8
2015-Jan-23 16:00N 34°13' W 021°26'1 0.6 1032.0
2015-Jan-23 14:00N 34°13' W 021°27'1 0.9 1032.6
2015-Jan-23 13:00N 34°13' W 021°28'1 1.2 1033.4
2015-Jan-23 12:00N 34°13' W 021°27'0 0.0 1033.9
2015-Jan-23 11:00N 34°13' W 021°27'1 0.6 1034.0
2015-Jan-23 10:00N 34°13' W 021°28'1 0.3 1033.7
2015-Jan-23 08:00N 34°13' W 021°27'0 0.2 1032.9
2015-Jan-23 06:00N 34°13' W 021°26'0 0.2 1032.3
2015-Jan-23 05:00N 34°13' W 021°27'0 0.3 1032.5
2015-Jan-23 04:00N 34°12' W 021°27'0 0.1 1032.8
2015-Jan-23 03:00N 34°12' W 021°27'2 0.3 1033.1
2015-Jan-22 22:00N 34°11' W 021°26'0 0.0 1034.2
2015-Jan-22 21:00N 34°11' W 021°26'2 0.9 1034.2
2015-Jan-22 19:00N 34°10' W 021°24'0 0.0 1033.4
2015-Jan-22 18:00N 34°10' W 021°24'0 0.2 1033.2
2015-Jan-22 17:00N 34°10' W 021°24'1 0.6 1033.1
2015-Jan-22 16:00N 34°10' W 021°24'2 0.8 1033.1
2015-Jan-22 14:00N 34°09' W 021°26'1 0.5 1033.7
2015-Jan-22 12:00N 34°08' W 021°25'1 1.0 1035.4
2015-Jan-22 11:00N 34°08' W 021°24'1 0.3 1035.1
2015-Jan-22 08:00N 34°07' W 021°24'0 0.0 1034.3
2015-Jan-22 07:00N 34°07' W 021°24'0 0.4 1033.7
2015-Jan-22 06:00N 34°07' W 021°24'0 0.2 1033.5
2015-Jan-22 05:00N 34°07' W 021°24'1 0.3 1033.5
2015-Jan-22 03:00N 34°06' W 021°24'2 1.9 1033.3
2015-Jan-22 02:00N 34°05' W 021°25'0 0.1 1033.4
2015-Jan-21 23:00N 34°04' W 021°25'1 0.5 1033.7
2015-Jan-21 22:00N 34°04' W 021°25'1 0.9 1033.6
2015-Jan-21 21:00N 34°04' W 021°24'1 0.4 1033.2
2015-Jan-21 19:00N 34°04' W 021°25'0 0.3 1032.3
2015-Jan-21 18:00N 34°04' W 021°25'1 0.7 1031.8
2015-Jan-21 16:00N 34°03' W 021°26'0 0.0 1031.1
2015-Jan-21 15:00N 34°03' W 021°26'1 0.3 1031.0
2015-Jan-21 12:00N 34°03' W 021°25'0 0.2 1032.8
2015-Jan-21 11:00N 34°02' W 021°25'1 0.8 1032.3
2015-Jan-21 10:00N 34°03' W 021°25'1 0.5 1031.7
2015-Jan-21 07:00N 34°03' W 021°24'0 0.2 1030.1
2015-Jan-21 06:00N 34°03' W 021°23'1 0.7 1029.4
2015-Jan-21 05:00N 34°03' W 021°24'0 0.2 1029.2
2015-Jan-21 03:00N 34°03' W 021°25'2 0.4 1029.2
2015-Jan-20 23:00N 34°01' W 021°24'0 0.4 1029.9
2015-Jan-20 22:00N 34°01' W 021°24'1 1.1 1029.7
2015-Jan-20 21:00N 34°01' W 021°23'0 0.0 1029.5
2015-Jan-20 20:00N 34°01' W 021°23'0 0.1 1029.3
2015-Jan-20 18:00N 34°01' W 021°23'0 0.1 1028.6
2015-Jan-20 17:00N 34°01' W 021°23'1 0.4 1028.4
2015-Jan-20 15:00N 34°00' W 021°23'0 0.1 1028.3
2015-Jan-20 13:00N 34°00' W 021°22'0 0.3 1029.3
2015-Jan-20 12:00N 34°00' W 021°22'1 1.1 1029.7
2015-Jan-20 11:00N 34°00' W 021°21'1 0.6 1029.8
2015-Jan-20 10:00N 34°01' W 021°21'0 0.0 1029.1
2015-Jan-20 08:00N 34°01' W 021°21'1 0.9 1028.2
2015-Jan-20 07:00N 34°01' W 021°20'1 0.5 1027.8
2015-Jan-20 06:00N 34°01' W 021°19'0 0.5 1028.2
2015-Jan-20 05:00N 34°02' W 021°20'1 0.6 1028.3
2015-Jan-20 03:00N 34°03' W 021°21'2 0.4 1029.1
2015-Jan-19 23:00N 34°04' W 021°19'0 0.5 1030.8
2015-Jan-19 22:00N 34°04' W 021°20'0 0.2 1030.8
2015-Jan-19 21:00N 34°04' W 021°20'1 1.2 1030.9
2015-Jan-19 20:00N 34°05' W 021°19'1 0.5 1030.9
2015-Jan-19 19:00N 34°06' W 021°19'0 0.0 1030.8
2015-Jan-19 18:00N 34°06' W 021°19'1 0.6 1031.0
2015-Jan-19 17:00N 34°06' W 021°19'1 0.3 1030.9
2015-Jan-19 15:00N 34°07' W 021°19'1 0.6 1030.9
2015-Jan-19 13:00N 34°08' W 021°20'1 0.6 1031.9
2015-Jan-19 12:00N 34°07' W 021°20'   1032.4

Dump ship's entire track history